sensor_id;sensor_type;location;lat;lon;timestamp;pressure;altitude;pressure_sealevel;temperature;humidity
60974;BME280;46846;51.528;5.076;2022-11-20T00:00:28;100774.81;;;2.22;72.41
60974;BME280;46846;51.528;5.076;2022-11-20T00:02:53;100773.91;;;2.19;72.61
60974;BME280;46846;51.528;5.076;2022-11-20T00:05:18;100775.66;;;2.22;72.59
60974;BME280;46846;51.528;5.076;2022-11-20T00:07:44;100770.41;;;2.19;72.46
60974;BME280;46846;51.528;5.076;2022-11-20T00:10:09;100780.03;;;2.17;72.41
60974;BME280;46846;51.528;5.076;2022-11-20T00:12:34;100783.56;;;2.14;72.33
60974;BME280;46846;51.528;5.076;2022-11-20T00:15:00;100779.16;;;2.15;72.19
60974;BME280;46846;51.528;5.076;2022-11-20T00:17:25;100787.06;;;2.12;72.61
60974;BME280;46846;51.528;5.076;2022-11-20T00:19:50;100787.91;;;2.12;72.50
60974;BME280;46846;51.528;5.076;2022-11-20T00:22:16;100783.53;;;2.11;72.66
60974;BME280;46846;51.528;5.076;2022-11-20T00:24:41;100788.81;;;2.10;72.33
60974;BME280;46846;51.528;5.076;2022-11-20T00:27:06;100787.06;;;2.07;72.46
60974;BME280;46846;51.528;5.076;2022-11-20T00:29:31;100792.31;;;2.07;72.66
60974;BME280;46846;51.528;5.076;2022-11-20T00:31:57;100790.56;;;2.04;72.47
60974;BME280;46846;51.528;5.076;2022-11-20T00:34:22;100785.31;;;2.04;72.41
60974;BME280;46846;51.528;5.076;2022-11-20T00:36:47;100783.56;;;2.03;72.60
60974;BME280;46846;51.528;5.076;2022-11-20T00:39:12;100784.44;;;2.02;72.23
60974;BME280;46846;51.528;5.076;2022-11-20T00:41:38;100781.78;;;1.99;72.30
60974;BME280;46846;51.528;5.076;2022-11-20T00:44:03;100783.56;;;1.97;72.39
60974;BME280;46846;51.528;5.076;2022-11-20T00:46:28;100779.16;;;1.98;72.64
60974;BME280;46846;51.528;5.076;2022-11-20T00:48:54;100772.19;;;1.94;72.33
60974;BME280;46846;51.528;5.076;2022-11-20T00:51:22;100777.44;;;1.95;72.29
60974;BME280;46846;51.528;5.076;2022-11-20T00:53:48;100776.53;;;1.93;72.28
60974;BME280;46846;51.528;5.076;2022-11-20T00:56:15;100777.41;;;1.92;72.00
60974;BME280;46846;51.528;5.076;2022-11-20T00:58:41;100779.19;;;1.91;72.39
60974;BME280;46846;51.528;5.076;2022-11-20T01:03:36;100777.44;;;1.89;72.12
60974;BME280;46846;51.528;5.076;2022-11-20T01:06:06;100784.44;;;1.90;72.31
60974;BME280;46846;51.528;5.076;2022-11-20T01:08:32;100773.06;;;1.88;72.13
60974;BME280;46846;51.528;5.076;2022-11-20T01:11:00;100773.94;;;1.85;72.15
60974;BME280;46846;51.528;5.076;2022-11-20T01:13:26;100773.94;;;1.85;72.12
60974;BME280;46846;51.528;5.076;2022-11-20T01:16:18;100781.78;;;1.84;72.30
60974;BME280;46846;51.528;5.076;2022-11-20T01:18:44;100771.31;;;1.81;72.02
60974;BME280;46846;51.528;5.076;2022-11-20T01:21:12;100774.78;;;1.80;72.12
60974;BME280;46846;51.528;5.076;2022-11-20T01:23:38;100776.53;;;1.79;72.27
60974;BME280;46846;51.528;5.076;2022-11-20T01:26:05;100785.28;;;1.80;72.04
60974;BME280;46846;51.528;5.076;2022-11-20T01:28:31;100789.66;;;1.79;71.98
60974;BME280;46846;51.528;5.076;2022-11-20T01:30:57;100785.28;;;1.76;72.22
60974;BME280;46846;51.528;5.076;2022-11-20T01:33:22;100781.81;;;1.76;72.16
60974;BME280;46846;51.528;5.076;2022-11-20T01:35:48;100787.03;;;1.74;72.08
60974;BME280;46846;51.528;5.076;2022-11-20T01:38:14;100787.91;;;1.73;72.21
60974;BME280;46846;51.528;5.076;2022-11-20T01:40:40;100790.53;;;1.73;72.35
60974;BME280;46846;51.528;5.076;2022-11-20T01:43:17;100775.69;;;1.72;72.16
60974;BME280;46846;51.528;5.076;2022-11-20T01:48:19;100780.91;;;1.71;72.07
60974;BME280;46846;51.528;5.076;2022-11-20T01:50:46;100777.41;;;1.70;72.30
60974;BME280;46846;51.528;5.076;2022-11-20T01:53:13;100780.91;;;1.69;72.10
60974;BME280;46846;51.528;5.076;2022-11-20T01:55:41;100781.78;;;1.70;71.99
60974;BME280;46846;51.528;5.076;2022-11-20T01:58:08;100780.91;;;1.69;71.82
60974;BME280;46846;51.528;5.076;2022-11-20T02:00:33;100777.41;;;1.67;71.88
60974;BME280;46846;51.528;5.076;2022-11-20T02:03:05;100774.78;;;1.67;71.89
60974;BME280;46846;51.528;5.076;2022-11-20T02:05:35;100774.78;;;1.67;72.19
60974;BME280;46846;51.528;5.076;2022-11-20T02:08:03;100771.28;;;1.65;72.17
60974;BME280;46846;51.528;5.076;2022-11-20T02:10:30;100771.28;;;1.65;72.21
60974;BME280;46846;51.528;5.076;2022-11-20T02:12:56;100773.91;;;1.65;72.27
60974;BME280;46846;51.528;5.076;2022-11-20T02:15:39;100773.91;;;1.65;72.09
60974;BME280;46846;51.528;5.076;2022-11-20T02:18:05;100773.03;;;1.64;72.22
60974;BME280;46846;51.528;5.076;2022-11-20T02:20:31;100773.00;;;1.63;72.16
60974;BME280;46846;51.528;5.076;2022-11-20T02:22:57;100763.38;;;1.60;72.12
60974;BME280;46846;51.528;5.076;2022-11-20T02:25:24;100770.41;;;1.61;72.05
60974;BME280;46846;51.528;5.076;2022-11-20T02:27:51;100771.25;;;1.60;72.18
60974;BME280;46846;51.528;5.076;2022-11-20T02:30:16;100766.03;;;1.59;71.99
60974;BME280;46846;51.528;5.076;2022-11-20T02:32:42;100766.03;;;1.59;71.95
60974;BME280;46846;51.528;5.076;2022-11-20T02:37:45;100761.66;;;1.56;71.94
60974;BME280;46846;51.528;5.076;2022-11-20T02:40:12;100761.63;;;1.55;72.04
60974;BME280;46846;51.528;5.076;2022-11-20T02:42:38;100759.03;;;1.55;72.31
60974;BME280;46846;51.528;5.076;2022-11-20T02:45:04;100758.16;;;1.56;72.07
60974;BME280;46846;51.528;5.076;2022-11-20T02:47:29;100756.41;;;1.55;72.14
60974;BME280;46846;51.528;5.076;2022-11-20T02:49:55;100755.53;;;1.56;72.19
60974;BME280;46846;51.528;5.076;2022-11-20T02:52:20;100755.53;;;1.56;72.06
60974;BME280;46846;51.528;5.076;2022-11-20T02:54:45;100752.91;;;1.54;71.92
60974;BME280;46846;51.528;5.076;2022-11-20T02:57:10;100757.28;;;1.55;71.99
60974;BME280;46846;51.528;5.076;2022-11-20T02:59:36;100747.66;;;1.54;72.04
60974;BME280;46846;51.528;5.076;2022-11-20T03:02:01;100743.28;;;1.55;72.16
60974;BME280;46846;51.528;5.076;2022-11-20T03:04:26;100738.91;;;1.54;72.11
60974;BME280;46846;51.528;5.076;2022-11-20T03:06:51;100731.94;;;1.53;71.94
60974;BME280;46846;51.528;5.076;2022-11-20T03:09:17;100738.91;;;1.54;72.02
60974;BME280;46846;51.528;5.076;2022-11-20T03:11:42;100735.44;;;1.52;71.86
60974;BME280;46846;51.528;5.076;2022-11-20T03:14:07;100730.19;;;1.52;72.14
60974;BME280;46846;51.528;5.076;2022-11-20T03:16:32;100731.91;;;1.51;71.97
60974;BME280;46846;51.528;5.076;2022-11-20T03:18:58;100729.28;;;1.51;72.12
60974;BME280;46846;51.528;5.076;2022-11-20T03:21:23;100722.31;;;1.50;71.70
60974;BME280;46846;51.528;5.076;2022-11-20T03:23:48;100726.66;;;1.51;71.79
60974;BME280;46846;51.528;5.076;2022-11-20T03:26:15;100722.31;;;1.52;71.68
60974;BME280;46846;51.528;5.076;2022-11-20T03:28:41;100718.78;;;1.49;71.98
60974;BME280;46846;51.528;5.076;2022-11-20T03:31:07;100724.03;;;1.49;72.11
60974;BME280;46846;51.528;5.076;2022-11-20T03:33:33;100722.28;;;1.48;72.29
60974;BME280;46846;51.528;5.076;2022-11-20T03:36:01;100714.44;;;1.48;72.09
60974;BME280;46846;51.528;5.076;2022-11-20T03:38:28;100720.56;;;1.49;72.04
60974;BME280;46846;51.528;5.076;2022-11-20T03:40:57;100710.06;;;1.49;71.96
60974;BME280;46846;51.528;5.076;2022-11-20T03:43:22;100707.44;;;1.49;72.11
60974;BME280;46846;51.528;5.076;2022-11-20T03:45:47;100701.34;;;1.47;71.86
60974;BME280;46846;51.528;5.076;2022-11-20T03:48:13;100688.22;;;1.47;72.39
60974;BME280;46846;51.528;5.076;2022-11-20T03:50:38;100691.69;;;1.46;72.05
60974;BME280;46846;51.528;5.076;2022-11-20T03:53:03;100701.31;;;1.45;72.03
60974;BME280;46846;51.528;5.076;2022-11-20T03:55:28;100705.69;;;1.45;71.90
60974;BME280;46846;51.528;5.076;2022-11-20T03:57:54;100706.56;;;1.45;72.17
60974;BME280;46846;51.528;5.076;2022-11-20T04:00:19;100701.31;;;1.45;72.06
60974;BME280;46846;51.528;5.076;2022-11-20T04:02:44;100701.31;;;1.45;71.95
60974;BME280;46846;51.528;5.076;2022-11-20T04:05:09;100696.06;;;1.42;72.04
60974;BME280;46846;51.528;5.076;2022-11-20T04:07:34;100690.81;;;1.42;72.31
60974;BME280;46846;51.528;5.076;2022-11-20T04:10:00;100686.47;;;1.43;72.16
60974;BME280;46846;51.528;5.076;2022-11-20T04:12:25;100691.69;;;1.43;72.27
60974;BME280;46846;51.528;5.076;2022-11-20T04:14:50;100690.81;;;1.42;72.16
60974;BME280;46846;51.528;5.076;2022-11-20T04:17:16;100686.44;;;1.41;72.57
60974;BME280;46846;51.528;5.076;2022-11-20T04:19:41;100693.44;;;1.44;71.92
60974;BME280;46846;51.528;5.076;2022-11-20T04:22:06;100692.56;;;1.42;72.26
60974;BME280;46846;51.528;5.076;2022-11-20T04:24:31;100684.72;;;1.42;72.45
60974;BME280;46846;51.528;5.076;2022-11-20T04:26:57;100692.56;;;1.42;72.04
60974;BME280;46846;51.528;5.076;2022-11-20T04:29:22;100682.97;;;1.41;71.85
60974;BME280;46846;51.528;5.076;2022-11-20T04:31:47;100684.69;;;1.40;71.97
60974;BME280;46846;51.528;5.076;2022-11-20T04:34:12;100682.97;;;1.39;72.45
60974;BME280;46846;51.528;5.076;2022-11-20T04:36:38;100683.84;;;1.38;72.31
60974;BME280;46846;51.528;5.076;2022-11-20T04:39:04;100679.47;;;1.37;72.52
60974;BME280;46846;51.528;5.076;2022-11-20T04:41:31;100676.84;;;1.39;72.28
60974;BME280;46846;51.528;5.076;2022-11-20T04:43:58;100672.47;;;1.38;72.37
60974;BME280;46846;51.528;5.076;2022-11-20T04:46:30;100662.88;;;1.38;72.50
60974;BME280;46846;51.528;5.076;2022-11-20T04:48:55;100659.34;;;1.38;72.18
60974;BME280;46846;51.528;5.076;2022-11-20T04:51:21;100664.59;;;1.38;72.53
60974;BME280;46846;51.528;5.076;2022-11-20T04:53:46;100669.84;;;1.36;72.19
60974;BME280;46846;51.528;5.076;2022-11-20T04:56:12;100662.00;;;1.36;72.52
60974;BME280;46846;51.528;5.076;2022-11-20T04:58:38;100667.25;;;1.36;72.23
60974;BME280;46846;51.528;5.076;2022-11-20T05:01:07;100664.59;;;1.38;72.36
60974;BME280;46846;51.528;5.076;2022-11-20T05:03:34;100660.22;;;1.36;72.37
60974;BME280;46846;51.528;5.076;2022-11-20T05:06:02;100659.38;;;1.36;72.13
60974;BME280;46846;51.528;5.076;2022-11-20T05:08:28;100662.00;;;1.36;72.32
60974;BME280;46846;51.528;5.076;2022-11-20T05:10:54;100657.63;;;1.35;72.43
60974;BME280;46846;51.528;5.076;2022-11-20T05:13:19;100659.38;;;1.36;72.63
60974;BME280;46846;51.528;5.076;2022-11-20T05:15:44;100657.63;;;1.35;72.34
60974;BME280;46846;51.528;5.076;2022-11-20T05:18:09;100650.59;;;1.34;72.26
60974;BME280;46846;51.528;5.076;2022-11-20T05:20:35;100653.22;;;1.34;72.58
60974;BME280;46846;51.528;5.076;2022-11-20T05:23:01;100654.13;;;1.34;72.49
60974;BME280;46846;51.528;5.076;2022-11-20T05:25:26;100648.88;;;1.33;72.13
60974;BME280;46846;51.528;5.076;2022-11-20T05:27:52;100651.50;;;1.33;72.59
60974;BME280;46846;51.528;5.076;2022-11-20T05:30:17;100651.50;;;1.33;72.72
60974;BME280;46846;51.528;5.076;2022-11-20T05:32:43;100651.50;;;1.33;72.45
60974;BME280;46846;51.528;5.076;2022-11-20T05:35:08;100653.25;;;1.32;72.38
60974;BME280;46846;51.528;5.076;2022-11-20T05:37:33;100642.78;;;1.32;72.48
60974;BME280;46846;51.528;5.076;2022-11-20T05:39:58;100648.88;;;1.33;72.15
60974;BME280;46846;51.528;5.076;2022-11-20T05:42:24;100648.88;;;1.31;72.53
60974;BME280;46846;51.528;5.076;2022-11-20T05:44:55;100652.38;;;1.32;72.39
60974;BME280;46846;51.528;5.076;2022-11-20T05:47:20;100652.38;;;1.32;72.39
60974;BME280;46846;51.528;5.076;2022-11-20T05:49:45;100661.09;;;1.31;72.68
60974;BME280;46846;51.528;5.076;2022-11-20T05:52:11;100668.09;;;1.32;72.41
60974;BME280;46846;51.528;5.076;2022-11-20T05:54:36;100664.63;;;1.31;72.49
60974;BME280;46846;51.528;5.076;2022-11-20T05:57:01;100662.00;;;1.31;72.48
60974;BME280;46846;51.528;5.076;2022-11-20T05:59:26;100655.88;;;1.31;72.41
60974;BME280;46846;51.528;5.076;2022-11-20T06:01:52;100668.09;;;1.30;72.25
60974;BME280;46846;51.528;5.076;2022-11-20T06:04:17;100668.09;;;1.30;72.37
60974;BME280;46846;51.528;5.076;2022-11-20T06:06:42;100662.88;;;1.29;72.47
60974;BME280;46846;51.528;5.076;2022-11-20T06:09:07;100665.47;;;1.29;72.20
60974;BME280;46846;51.528;5.076;2022-11-20T06:11:33;100662.88;;;1.29;72.40
60974;BME280;46846;51.528;5.076;2022-11-20T06:13:58;100662.88;;;1.29;72.32
60974;BME280;46846;51.528;5.076;2022-11-20T06:16:23;100655.00;;;1.27;72.33
60974;BME280;46846;51.528;5.076;2022-11-20T06:18:48;100654.09;;;1.27;72.76
60974;BME280;46846;51.528;5.076;2022-11-20T06:21:18;100647.09;;;1.26;72.36
60974;BME280;46846;51.528;5.076;2022-11-20T06:23:43;100652.34;;;1.26;72.73
60974;BME280;46846;51.528;5.076;2022-11-20T06:26:10;100649.72;;;1.26;72.37
60974;BME280;46846;51.528;5.076;2022-11-20T06:28:35;100645.38;;;1.25;72.72
60974;BME280;46846;51.528;5.076;2022-11-20T06:31:01;100642.72;;;1.23;72.26
60974;BME280;46846;51.528;5.076;2022-11-20T06:33:26;100645.38;;;1.25;72.16
60974;BME280;46846;51.528;5.076;2022-11-20T06:35:52;100636.66;;;1.24;72.50
60974;BME280;46846;51.528;5.076;2022-11-20T06:38:17;100634.00;;;1.22;72.59
60974;BME280;46846;51.528;5.076;2022-11-20T06:40:42;100647.13;;;1.22;72.44
60974;BME280;46846;51.528;5.076;2022-11-20T06:43:09;100641.00;;;1.22;72.58
60974;BME280;46846;51.528;5.076;2022-11-20T06:45:34;100644.50;;;1.21;72.80
60974;BME280;46846;51.528;5.076;2022-11-20T06:47:59;100638.41;;;1.20;72.53
60974;BME280;46846;51.528;5.076;2022-11-20T06:50:24;100647.09;;;1.21;72.51
60974;BME280;46846;51.528;5.076;2022-11-20T06:52:50;100643.63;;;1.20;72.31
60974;BME280;46846;51.528;5.076;2022-11-20T06:55:15;100637.50;;;1.20;72.51
60974;BME280;46846;51.528;5.076;2022-11-20T06:57:40;100638.41;;;1.20;73.06
60974;BME280;46846;51.528;5.076;2022-11-20T07:00:05;100633.16;;;1.20;72.62
60974;BME280;46846;51.528;5.076;2022-11-20T07:02:31;100639.25;;;1.21;72.69
60974;BME280;46846;51.528;5.076;2022-11-20T07:04:56;100632.25;;;1.18;72.58
60974;BME280;46846;51.528;5.076;2022-11-20T07:07:21;100630.53;;;1.19;72.86
60974;BME280;46846;51.528;5.076;2022-11-20T07:09:47;100628.78;;;1.18;72.63
60974;BME280;46846;51.528;5.076;2022-11-20T07:12:12;100622.66;;;1.17;72.56
60974;BME280;46846;51.528;5.076;2022-11-20T07:14:37;100626.13;;;1.16;72.67
60974;BME280;46846;51.528;5.076;2022-11-20T07:17:02;100612.16;;;1.16;72.84
60974;BME280;46846;51.528;5.076;2022-11-20T07:19:28;100621.78;;;1.15;72.76
60974;BME280;46846;51.528;5.076;2022-11-20T07:21:53;100618.28;;;1.13;72.47
60974;BME280;46846;51.528;5.076;2022-11-20T07:24:18;100612.16;;;1.13;72.46
60974;BME280;46846;51.528;5.076;2022-11-20T07:26:45;100611.28;;;1.12;72.68
60974;BME280;46846;51.528;5.076;2022-11-20T07:29:11;100620.91;;;1.13;72.93
60974;BME280;46846;51.528;5.076;2022-11-20T07:31:36;100618.28;;;1.15;72.51
60974;BME280;46846;51.528;5.076;2022-11-20T07:34:01;100622.66;;;1.13;72.81
60974;BME280;46846;51.528;5.076;2022-11-20T07:36:27;100626.16;;;1.13;72.59
60974;BME280;46846;51.528;5.076;2022-11-20T07:38:52;100627.03;;;1.11;72.97
60974;BME280;46846;51.528;5.076;2022-11-20T07:41:17;100632.25;;;1.12;72.71
60974;BME280;46846;51.528;5.076;2022-11-20T07:43:42;100634.84;;;1.12;72.49
60974;BME280;46846;51.528;5.076;2022-11-20T07:46:08;100633.13;;;1.11;72.63
60974;BME280;46846;51.528;5.076;2022-11-20T07:48:33;100623.53;;;1.12;72.60
60974;BME280;46846;51.528;5.076;2022-11-20T07:50:58;100628.75;;;1.12;72.72
60974;BME280;46846;51.528;5.076;2022-11-20T07:53:23;100628.75;;;1.10;72.59
60974;BME280;46846;51.528;5.076;2022-11-20T07:55:49;100631.38;;;1.10;72.65
60974;BME280;46846;51.528;5.076;2022-11-20T07:58:17;100627.00;;;1.09;72.72
60974;BME280;46846;51.528;5.076;2022-11-20T08:00:42;100634.00;;;1.10;72.45
60974;BME280;46846;51.528;5.076;2022-11-20T08:03:07;100636.63;;;1.10;72.75
60974;BME280;46846;51.528;5.076;2022-11-20T08:05:33;100638.38;;;1.08;72.79
60974;BME280;46846;51.528;5.076;2022-11-20T08:07:58;100630.50;;;1.08;72.87
60974;BME280;46846;51.528;5.076;2022-11-20T08:10:23;100630.50;;;1.08;72.90
60974;BME280;46846;51.528;5.076;2022-11-20T08:12:50;100635.75;;;1.08;72.45
60974;BME280;46846;51.528;5.076;2022-11-20T08:15:34;100641.00;;;1.09;72.63
60974;BME280;46846;51.528;5.076;2022-11-20T08:18:01;100643.59;;;1.08;72.57
60974;BME280;46846;51.528;5.076;2022-11-20T08:20:26;100636.59;;;1.08;72.51
60974;BME280;46846;51.528;5.076;2022-11-20T08:22:51;100637.50;;;1.09;72.81
60974;BME280;46846;51.528;5.076;2022-11-20T08:25:16;100632.25;;;1.09;72.85
60974;BME280;46846;51.528;5.076;2022-11-20T08:27:42;100629.63;;;1.09;72.76
60974;BME280;46846;51.528;5.076;2022-11-20T08:30:07;100633.13;;;1.09;72.64
60974;BME280;46846;51.528;5.076;2022-11-20T08:32:32;100640.13;;;1.09;72.61
60974;BME280;46846;51.528;5.076;2022-11-20T08:34:59;100641.84;;;1.10;72.58
60974;BME280;46846;51.528;5.076;2022-11-20T08:37:25;100635.75;;;1.09;72.82
60974;BME280;46846;51.528;5.076;2022-11-20T08:39:50;100639.22;;;1.08;72.84
60974;BME280;46846;51.528;5.076;2022-11-20T08:42:15;100632.25;;;1.09;73.11
60974;BME280;46846;51.528;5.076;2022-11-20T08:44:40;100634.00;;;1.10;73.04
60974;BME280;46846;51.528;5.076;2022-11-20T08:47:08;100632.25;;;1.11;72.47
60974;BME280;46846;51.528;5.076;2022-11-20T08:49:33;100635.75;;;1.09;72.96
60974;BME280;46846;51.528;5.076;2022-11-20T08:51:59;100620.88;;;1.10;72.92
60974;BME280;46846;51.528;5.076;2022-11-20T08:54:24;100621.78;;;1.09;73.00
60974;BME280;46846;51.528;5.076;2022-11-20T08:56:49;100620.00;;;1.11;73.11
60974;BME280;46846;51.528;5.076;2022-11-20T08:59:14;100622.63;;;1.11;73.25
60974;BME280;46846;51.528;5.076;2022-11-20T09:01:40;100622.63;;;1.11;73.22
60974;BME280;46846;51.528;5.076;2022-11-20T09:04:05;100621.75;;;1.12;73.18
60974;BME280;46846;51.528;5.076;2022-11-20T09:06:30;100620.91;;;1.13;73.05
60974;BME280;46846;51.528;5.076;2022-11-20T09:08:55;100613.91;;;1.12;72.70
60974;BME280;46846;51.528;5.076;2022-11-20T09:11:21;100615.66;;;1.13;73.04
60974;BME280;46846;51.528;5.076;2022-11-20T09:13:47;100600.81;;;1.14;72.93
60974;BME280;46846;51.528;5.076;2022-11-20T09:16:12;100584.22;;;1.13;72.98
60974;BME280;46846;51.528;5.076;2022-11-20T09:18:38;100596.44;;;1.14;73.19
60974;BME280;46846;51.528;5.076;2022-11-20T09:21:04;100587.69;;;1.12;73.02
60974;BME280;46846;51.528;5.076;2022-11-20T09:23:31;100584.22;;;1.13;73.36
60974;BME280;46846;51.528;5.076;2022-11-20T09:25:56;100572.84;;;1.13;73.12
60974;BME280;46846;51.528;5.076;2022-11-20T09:28:24;100586.81;;;1.15;73.20
60974;BME280;46846;51.528;5.076;2022-11-20T09:33:25;100578.97;;;1.16;72.83
60974;BME280;46846;51.528;5.076;2022-11-20T09:35:50;100570.22;;;1.17;73.25
60974;BME280;46846;51.528;5.076;2022-11-20T09:38:15;100565.88;;;1.16;73.39
60974;BME280;46846;51.528;5.076;2022-11-20T09:40:45;100566.72;;;1.18;73.14
60974;BME280;46846;51.528;5.076;2022-11-20T09:48:18;100548.38;;;1.20;73.23
60974;BME280;46846;51.528;5.076;2022-11-20T09:50:47;100544.03;;;1.20;73.16
60974;BME280;46846;51.528;5.076;2022-11-20T09:56:00;100530.91;;;1.23;73.25
60974;BME280;46846;51.528;5.076;2022-11-20T10:01:00;100516.06;;;1.22;73.18
60974;BME280;46846;51.528;5.076;2022-11-20T10:03:39;100512.56;;;1.23;73.17
60974;BME280;46846;51.528;5.076;2022-11-20T10:06:08;100505.59;;;1.22;73.06
60974;BME280;46846;51.528;5.076;2022-11-20T10:08:40;100509.94;;;1.23;73.50
60974;BME280;46846;51.528;5.076;2022-11-20T10:11:13;100506.44;;;1.26;73.71
60974;BME280;46846;51.528;5.076;2022-11-20T10:16:17;100497.72;;;1.27;73.41
60974;BME280;46846;51.528;5.076;2022-11-20T10:24:15;100498.56;;;1.31;73.50
60974;BME280;46846;51.528;5.076;2022-11-20T10:26:44;100488.97;;;1.31;73.46
60974;BME280;46846;51.528;5.076;2022-11-20T10:29:16;100478.50;;;1.31;73.39
60974;BME280;46846;51.528;5.076;2022-11-20T10:31:49;100474.09;;;1.32;73.55
60974;BME280;46846;51.528;5.076;2022-11-20T10:36:45;100461.00;;;1.33;73.43
60974;BME280;46846;51.528;5.076;2022-11-20T10:41:46;100454.00;;;1.35;73.26
60974;BME280;46846;51.528;5.076;2022-11-20T10:44:15;100446.13;;;1.37;73.43
60974;BME280;46846;51.528;5.076;2022-11-20T10:47:01;100433.91;;;1.41;73.57
60974;BME280;46846;51.528;5.076;2022-11-20T10:49:26;100432.13;;;1.41;73.50
60974;BME280;46846;51.528;5.076;2022-11-20T10:54:19;100440.00;;;1.41;73.37
60974;BME280;46846;51.528;5.076;2022-11-20T10:56:48;100437.38;;;1.41;73.52
60974;BME280;46846;51.528;5.076;2022-11-20T11:01:46;100430.41;;;1.43;73.44
60974;BME280;46846;51.528;5.076;2022-11-20T11:06:58;100421.66;;;1.44;73.63
60974;BME280;46846;51.528;5.076;2022-11-20T11:09:32;100416.41;;;1.44;73.48
60974;BME280;46846;51.528;5.076;2022-11-20T11:11:59;100413.75;;;1.46;73.64
60974;BME280;46846;51.528;5.076;2022-11-20T11:14:24;100405.03;;;1.42;73.45
60974;BME280;46846;51.528;5.076;2022-11-20T11:16:50;100406.78;;;1.42;73.64
60974;BME280;46846;51.528;5.076;2022-11-20T11:19:16;100409.38;;;1.45;73.65
60974;BME280;46846;51.528;5.076;2022-11-20T11:21:49;100404.16;;;1.46;73.76
60974;BME280;46846;51.528;5.076;2022-11-20T11:24:22;100400.66;;;1.49;73.81
60974;BME280;46846;51.528;5.076;2022-11-20T11:26:57;100398.03;;;1.49;73.49
60974;BME280;46846;51.528;5.076;2022-11-20T11:29:24;100393.66;;;1.46;73.74
60974;BME280;46846;51.528;5.076;2022-11-20T11:32:02;100381.41;;;1.48;73.84
60974;BME280;46846;51.528;5.076;2022-11-20T11:34:27;100387.53;;;1.49;73.91
60974;BME280;46846;51.528;5.076;2022-11-20T11:36:56;100378.78;;;1.50;73.76
60974;BME280;46846;51.528;5.076;2022-11-20T11:39:22;100374.44;;;1.50;73.79
60974;BME280;46846;51.528;5.076;2022-11-20T11:41:48;100363.06;;;1.50;73.72
60974;BME280;46846;51.528;5.076;2022-11-20T11:46:58;100351.69;;;1.53;73.97
60974;BME280;46846;51.528;5.076;2022-11-20T11:49:24;100330.72;;;1.51;73.87
60974;BME280;46846;51.528;5.076;2022-11-20T11:54:20;100318.47;;;1.50;74.14
60974;BME280;46846;51.528;5.076;2022-11-20T11:56:47;100310.63;;;1.50;74.15
60974;BME280;46846;51.528;5.076;2022-11-20T11:59:15;100301.00;;;1.47;74.09
60974;BME280;46846;51.528;5.076;2022-11-20T12:01:47;100301.91;;;1.48;74.50
60974;BME280;46846;51.528;5.076;2022-11-20T12:07:04;100288.75;;;1.53;74.36
60974;BME280;46846;51.528;5.076;2022-11-20T12:09:37;100293.13;;;1.54;74.51
60974;BME280;46846;51.528;5.076;2022-11-20T12:12:05;100293.97;;;1.56;74.59
60974;BME280;46846;51.528;5.076;2022-11-20T12:14:34;100288.72;;;1.59;74.27
60974;BME280;46846;51.528;5.076;2022-11-20T12:17:01;100282.59;;;1.60;74.35
60974;BME280;46846;51.528;5.076;2022-11-20T12:19:26;100278.22;;;1.59;74.34
60974;BME280;46846;51.528;5.076;2022-11-20T12:21:57;100278.22;;;1.59;74.52
60974;BME280;46846;51.528;5.076;2022-11-20T12:29:53;100262.47;;;1.65;74.50
60974;BME280;46846;51.528;5.076;2022-11-20T12:37:57;100243.22;;;1.64;74.88
60974;BME280;46846;51.528;5.076;2022-11-20T12:42:50;100228.34;;;1.67;74.82
60974;BME280;46846;51.528;5.076;2022-11-20T12:50:57;100215.19;;;1.71;74.72
60974;BME280;46846;51.528;5.076;2022-11-20T12:53:40;100204.69;;;1.73;74.74
60974;BME280;46846;51.528;5.076;2022-11-20T12:56:21;100202.91;;;1.76;74.57
60974;BME280;46846;51.528;5.076;2022-11-20T13:06:37;100160.88;;;1.83;74.75
60974;BME280;46846;51.528;5.076;2022-11-20T13:09:04;100160.00;;;1.82;74.37
60974;BME280;46846;51.528;5.076;2022-11-20T13:14:16;100152.97;;;1.86;74.62
60974;BME280;46846;51.528;5.076;2022-11-20T13:16:47;100146.81;;;1.88;74.98
60974;BME280;46846;51.528;5.076;2022-11-20T13:19:15;100144.19;;;1.90;75.18
60974;BME280;46846;51.528;5.076;2022-11-20T13:21:42;100138.94;;;1.91;74.68
60974;BME280;46846;51.528;5.076;2022-11-20T13:24:20;100139.78;;;1.92;74.91
60974;BME280;46846;51.528;5.076;2022-11-20T13:26:48;100125.78;;;1.95;75.08
60974;BME280;46846;51.528;5.076;2022-11-20T13:29:24;100129.31;;;1.92;75.09
60974;BME280;46846;51.528;5.076;2022-11-20T13:31:49;100121.44;;;1.94;75.31
60974;BME280;46846;51.528;5.076;2022-11-20T13:34:24;100122.28;;;1.96;75.24
60974;BME280;46846;51.528;5.076;2022-11-20T13:36:51;100118.75;;;1.98;75.99
60974;BME280;46846;51.528;5.076;2022-11-20T13:39:33;100117.81;;;2.04;75.86
60974;BME280;46846;51.528;5.076;2022-11-20T13:42:03;100114.28;;;2.08;76.40
60974;BME280;46846;51.528;5.076;2022-11-20T13:44:51;100108.97;;;2.11;76.15
60974;BME280;46846;51.528;5.076;2022-11-20T13:47:23;100104.63;;;2.12;76.40
60974;BME280;46846;51.528;5.076;2022-11-20T13:49:49;100095.84;;;2.13;76.94
60974;BME280;46846;51.528;5.076;2022-11-20T13:55:02;100081.06;;;2.07;75.55
60974;BME280;46846;51.528;5.076;2022-11-20T14:00:18;100073.94;;;2.15;76.05
60974;BME280;46846;51.528;5.076;2022-11-20T14:02:44;100073.06;;;2.16;75.38
60974;BME280;46846;51.528;5.076;2022-11-20T14:05:22;100071.34;;;2.14;76.20
60974;BME280;46846;51.528;5.076;2022-11-20T14:07:47;100066.09;;;2.12;75.69
60974;BME280;46846;51.528;5.076;2022-11-20T14:10:24;100057.38;;;2.09;75.34
60974;BME280;46846;51.528;5.076;2022-11-20T14:12:50;100054.75;;;2.12;75.98
60974;BME280;46846;51.528;5.076;2022-11-20T14:15:26;100048.56;;;2.16;76.44
60974;BME280;46846;51.528;5.076;2022-11-20T14:17:51;100043.25;;;2.21;76.71
60974;BME280;46846;51.528;5.076;2022-11-20T14:20:17;100037.06;;;2.25;76.78
60974;BME280;46846;51.528;5.076;2022-11-20T14:22:48;100032.72;;;2.24;75.69